Highland City, Florida
Current Conditions -  °F | °C
As of 1:55 AM on Thursday 25 Dec 2014 (Local Time) from KBOW Reporting Station
Broken Clouds Broken Clouds  
Wind Chill: 64°   Ceiling: 5000
Heat Index: 64°   Visibility: 10mi
Dew Point: 61°   Wind: 7mph
Humidity: 88%   Direction: 290°WNW
Pressure: 30"   Gusts: NA
Location:  27.97°N, 81.88°W
Report Text: KBOW 250655Z AUTO 29006KT 10SM BKN050 18/16 A3000 RMK AO2
Loading
Personal Weather Stations






























Interactive Weather Map New forecast layout! Learn more

10-Day Weather Forecast

Advertisements
Track Severe Weather on mobile